Time;durP1;ratioP1;P1;durP2;ratioP2;P2;SDS_P1;SDS_P2;PMS_P1;PMS_P2;Temp;Humidity;BMP_temperature;BMP_pressure;BME280_temperature;BME280_humidity;BME280_pressure;Samples;Min_cycle;Max_cycle;Signal;HPM_P1;HPM_P2
2022/05/20 00:03:07;;;;;;;6.07;3.70;;;18.00;99.90;;;;;;6637828;89;20196;-79
2022/05/20 00:13:09;;;;;;;7.95;4.68;;;18.00;99.90;;;;;;6637533;89;20538;-78
2022/05/20 00:23:10;;;;;;;8.02;4.93;;;18.00;99.90;;;;;;6644362;89;20210;-80
2022/05/20 00:33:13;;;;;;;8.50;6.62;;;18.00;99.90;;;;;;6642544;88;20216;-78
2022/05/20 00:43:35;;;;;;;10.80;8.80;;;17.90;99.90;;;;;;6638879;89;20227;-78
2022/05/20 00:53:46;;;;;;;13.65;9.32;;;17.80;99.90;;;;;;6642339;89;20188;-80
2022/05/20 01:03:50;;;;;;;18.85;12.20;;;17.70;99.90;;;;;;6645314;89;20177;-78
2022/05/20 01:13:51;;;;;;;16.73;12.75;;;17.70;99.90;;;;;;6639688;89;20192;-79
2022/05/20 01:23:51;;;;;;;22.50;14.02;;;17.70;99.90;;;;;;6643016;89;20682;-79
2022/05/20 01:33:52;;;;;;;28.02;17.40;;;17.70;99.90;;;;;;6642827;89;20245;-79
2022/05/20 01:44:21;;;;;;;25.90;16.77;;;17.80;99.90;;;;;;6639925;89;20357;-78
2022/05/20 01:54:30;;;;;;;26.50;17.85;;;17.90;99.90;;;;;;6638451;89;20192;-79
2022/05/20 02:04:55;;;;;;;26.30;18.27;;;18.00;99.90;;;;;;6637169;89;20214;-79
2022/05/20 02:15:04;;;;;;;30.50;19.23;;;17.90;99.90;;;;;;6635669;89;20192;-79
2022/05/20 02:25:09;;;;;;;30.35;19.92;;;17.70;99.90;;;;;;6640968;89;20235;-78
2022/05/20 02:35:09;;;;;;;28.35;18.73;;;17.60;99.90;;;;;;6647390;89;20272;-80
2022/05/20 02:45:12;;;;;;;29.95;18.87;;;17.60;99.90;;;;;;6639156;89;20192;-79
2022/05/20 02:55:13;;;;;;;27.42;18.33;;;17.70;99.90;;;;;;6643180;89;20214;-79
2022/05/20 03:05:15;;;;;;;29.42;18.98;;;17.80;99.90;;;;;;6639300;89;20189;-79
2022/05/20 03:15:17;;;;;;;33.05;21.23;;;17.80;99.90;;;;;;6639854;89;20266;-78
2022/05/20 03:25:17;;;;;;;33.90;21.75;;;17.80;99.90;;;;;;6640703;89;20210;-78
2022/05/20 03:35:18;;;;;;;32.77;22.13;;;17.90;99.90;;;;;;6640911;89;20679;-78
2022/05/20 03:45:18;;;;;;;32.75;20.77;;;17.70;99.90;;;;;;6643309;89;20929;-79
2022/05/20 03:55:19;;;;;;;30.30;19.12;;;17.60;99.90;;;;;;6642513;89;20255;-80
2022/05/20 04:05:20;;;;;;;30.40;20.00;;;17.40;99.90;;;;;;6639848;89;20278;-78
2022/05/20 04:15:20;;;;;;;32.40;21.55;;;17.50;99.90;;;;;;6641832;89;20200;-78
2022/05/20 04:25:21;;;;;;;30.85;19.83;;;17.50;99.90;;;;;;6638628;89;20311;-78
2022/05/20 04:35:21;;;;;;;33.77;21.17;;;17.60;99.90;;;;;;6642136;89;20243;-80
2022/05/20 04:55:41;;;;;;;35.15;22.85;;;17.60;99.90;;;;;;6638653;89;20527;-77
2022/05/20 05:05:42;;;;;;;33.67;22.33;;;17.50;99.90;;;;;;6638405;89;20206;-77
2022/05/20 05:15:45;;;;;;;35.72;23.25;;;17.60;99.90;;;;;;6639159;89;20370;-78
2022/05/20 05:25:47;;;;;;;30.47;20.43;;;17.70;99.90;;;;;;6641095;89;20254;-78
2022/05/20 05:35:47;;;;;;;37.28;24.83;;;18.00;99.90;;;;;;6646770;89;20198;-78
2022/05/20 05:45:48;;;;;;;39.75;25.25;;;18.50;99.90;;;;;;6640573;89;20188;-80
2022/05/20 05:55:53;;;;;;;53.78;29.17;;;18.80;99.90;;;;;;6644576;89;20267;-79
2022/05/20 06:05:55;;;;;;;53.15;28.48;;;18.60;99.90;;;;;;6640973;89;20188;-78
2022/05/20 06:15:56;;;;;;;46.75;28.23;;;18.70;99.90;;;;;;6643906;88;20245;-78
2022/05/20 06:25:57;;;;;;;43.85;27.90;;;18.90;99.90;;;;;;6657833;89;20227;-78
2022/05/20 06:46:18;;;;;;;48.00;26.95;;;19.00;99.90;;;;;;6657888;89;20399;-79
2022/05/20 06:56:20;;;;;;;45.88;27.98;;;19.30;99.90;;;;;;6659813;89;20204;-78
2022/05/20 07:06:22;;;;;;;50.10;27.95;;;19.30;99.90;;;;;;6659502;89;20243;-78
2022/05/20 07:16:27;;;;;;;47.95;26.05;;;19.20;99.90;;;;;;6659041;88;20205;-79
2022/05/20 07:26:28;;;;;;;46.20;25.42;;;19.50;99.90;;;;;;6642342;89;20196;-79
2022/05/20 07:36:29;;;;;;;46.35;23.65;;;19.60;99.90;;;;;;6642587;89;20192;-79
2022/05/20 07:46:29;;;;;;;36.58;21.12;;;20.10;99.90;;;;;;6642454;89;20184;-79
2022/05/20 07:56:33;;;;;;;36.00;21.17;;;20.50;99.90;;;;;;6642516;89;20339;-79
2022/05/20 08:06:34;;;;;;;34.05;20.40;;;21.10;99.90;;;;;;6647582;89;20206;-80
2022/05/20 08:16:35;;;;;;;29.17;17.02;;;21.10;99.90;;;;;;6647443;89;20203;-79
2022/05/20 08:26:36;;;;;;;21.40;13.32;;;21.00;99.90;;;;;;6668759;89;20379;-79
2022/05/20 08:36:38;;;;;;;19.15;12.43;;;20.90;99.90;;;;;;6660146;89;20228;-78
2022/05/20 08:46:40;;;;;;;18.10;11.73;;;21.20;99.90;;;;;;6662095;89;20168;-80
2022/05/20 08:56:41;;;;;;;18.48;11.27;;;21.60;99.90;;;;;;6661515;88;20595;-79
2022/05/20 09:07:02;;;;;;;15.87;10.20;;;22.80;99.90;;;;;;6660544;89;20203;-79
2022/05/20 09:17:14;;;;;;;11.15;8.05;;;22.70;99.90;;;;;;6660375;88;20210;-80
2022/05/20 09:27:31;;;;;;;7.90;5.68;;;23.40;99.90;;;;;;6642259;89;20303;-79
2022/05/20 09:37:34;;;;;;;8.98;5.87;;;24.10;99.90;;;;;;6645698;89;20201;-80
2022/05/20 09:47:43;;;;;;;11.52;7.43;;;24.30;99.90;;;;;;6642151;89;20208;-79
2022/05/20 09:57:47;;;;;;;10.35;7.25;;;23.40;99.90;;;;;;6645223;89;20193;-79
2022/05/20 10:08:17;;;;;;;10.82;7.28;;;24.00;99.90;;;;;;6640816;89;20204;-79
2022/05/20 10:18:26;;;;;;;10.68;8.00;;;25.00;99.90;;;;;;6644083;88;20196;-78
2022/05/20 10:39:22;;;;;;;11.18;7.55;;;25.30;99.90;;;;;;6656603;89;20224;-80
2022/05/20 10:49:46;;;;;;;11.68;8.27;;;26.10;99.90;;;;;;6641296;89;20223;-78
2022/05/20 11:00:13;;;;;;;10.45;6.70;;;25.60;99.90;;;;;;6643989;89;20216;-80
2022/05/20 11:10:43;;;;;;;9.13;6.78;;;25.40;99.90;;;;;;6648567;89;20181;-80
2022/05/20 11:21:16;;;;;;;11.50;7.00;;;25.30;99.90;;;;;;6668232;78;20208;-79
2022/05/20 11:31:39;;;;;;;9.15;7.28;;;25.20;99.90;;;;;;6675204;88;20663;-79
2022/05/20 11:41:40;;;;;;;10.38;6.53;;;24.30;99.90;;;;;;6675596;88;20702;-78
2022/05/20 11:51:59;;;;;;;8.45;6.35;;;24.50;99.90;;;;;;6674857;88;20194;-80
2022/05/20 12:02:01;;;;;;;11.98;5.82;;;24.40;99.90;;;;;;6673906;89;20219;-79
2022/05/20 12:12:24;;;;;;;10.98;7.07;;;24.20;99.90;;;;;;6673998;89;20694;-79
2022/05/20 12:32:49;;;;;;;10.95;6.32;;;24.30;99.90;;;;;;6654888;89;20191;-79
2022/05/20 12:43:10;;;;;;;9.40;6.10;;;25.00;99.90;;;;;;6655505;89;20825;-79
2022/05/20 12:53:12;;;;;;;8.95;6.20;;;25.20;99.90;;;;;;6660192;88;20327;-78
2022/05/20 13:03:29;;;;;;;7.70;5.70;;;25.10;99.90;;;;;;6671396;89;20221;-78
2022/05/20 13:13:30;;;;;;;9.15;6.40;;;24.90;99.90;;;;;;6685764;88;20253;-78
2022/05/20 13:23:55;;;;;;;8.57;6.15;;;24.70;99.90;;;;;;6677882;77;20228;-81
2022/05/20 13:33:55;;;;;;;10.77;6.50;;;24.60;99.90;;;;;;6684616;88;20239;-77
2022/05/20 13:44:01;;;;;;;8.50;6.30;;;24.60;99.90;;;;;;6662002;88;20227;-79
2022/05/20 13:54:09;;;;;;;10.65;5.72;;;24.90;99.90;;;;;;6674892;88;21069;-78
2022/05/20 14:04:09;;;;;;;8.02;5.10;;;25.10;99.90;;;;;;6647740;89;20165;-77
2022/05/20 14:14:25;;;;;;;5.90;4.20;;;25.40;99.90;;;;;;6653135;89;20559;-78
2022/05/20 14:24:32;;;;;;;10.73;5.40;;;25.20;99.90;;;;;;6649670;89;20267;-78
2022/05/20 14:34:54;;;;;;;8.20;6.15;;;24.40;99.90;;;;;;6646638;89;20191;-79
2022/05/20 14:45:11;;;;;;;8.82;6.20;;;23.50;99.90;;;;;;6650951;89;20221;-81
2022/05/20 14:55:26;;;;;;;10.40;6.40;;;22.90;99.90;;;;;;6651770;89;20210;-79
2022/05/20 15:05:31;;;;;;;10.20;6.90;;;22.10;99.90;;;;;;6653272;89;20194;-80
2022/05/20 15:15:38;;;;;;;7.75;6.18;;;21.60;99.90;;;;;;6660977;89;20204;-79
2022/05/20 15:25:39;;;;;;;9.52;7.70;;;21.20;99.90;;;;;;6664625;88;20196;-80
2022/05/20 15:35:40;;;;;;;8.90;6.17;;;20.80;99.90;;;;;;6678361;89;20254;-80
2022/05/20 15:45:41;;;;;;;9.63;5.22;;;20.50;99.90;;;;;;6681209;88;20174;-82
2022/05/20 16:06:45;;;;;;;11.93;6.00;;;20.70;99.90;;;;;;6651776;88;20379;-81
2022/05/20 16:16:46;;;;;;;9.43;6.10;;;20.90;99.90;;;;;;6638639;89;20280;-79
2022/05/20 16:26:47;;;;;;;10.55;6.50;;;20.40;99.90;;;;;;6641510;88;20242;-79
2022/05/20 16:36:48;;;;;;;6.18;3.67;;;20.00;99.90;;;;;;6661888;88;20261;-81
2022/05/20 16:46:51;;;;;;;9.38;3.40;;;19.70;99.90;;;;;;6659028;88;21010;-86
2022/05/20 17:07:14;;;;;;;7.00;3.10;;;19.30;99.90;;;;;;6655420;88;20742;-82
2022/05/20 17:28:58;;;;;;;8.60;3.87;;;19.10;99.90;;;;;;6680832;88;20161;-83
2022/05/20 17:38:58;;;;;;;6.80;3.60;;;19.80;99.90;;;;;;6743787;88;20346;-82
2022/05/20 17:49:00;;;;;;;3.78;2.50;;;20.20;99.90;;;;;;6753030;88;20231;-83
2022/05/20 17:59:00;;;;;;;4.30;2.30;;;21.10;99.90;;;;;;6757113;88;20592;-83
2022/05/20 18:09:01;;;;;;;5.95;3.40;;;20.40;99.90;;;;;;6758689;88;20205;-81
2022/05/20 18:50:11;;;;;;;7.93;5.15;;;17.50;99.90;;;;;;6775443;77;20168;-85
2022/05/20 19:10:15;;;;;;;6.37;5.40;;;17.00;99.90;;;;;;6740321;88;20193;-80
2022/05/20 19:20:16;;;;;;;7.55;5.03;;;16.70;99.90;;;;;;6745121;88;20219;-79
2022/05/20 19:30:17;;;;;;;7.55;4.07;;;16.50;99.90;;;;;;6763018;87;20191;-81
2022/05/20 19:50:21;;;;;;;6.57;5.22;;;16.20;99.90;;;;;;6744342;88;20619;-78
2022/05/20 20:10:44;;;;;;;8.20;4.50;;;15.90;99.90;;;;;;6736539;88;20647;-79
2022/05/20 20:20:46;;;;;;;8.02;4.20;;;15.90;99.90;;;;;;6728582;88;20188;-80
2022/05/20 20:30:48;;;;;;;8.15;4.03;;;15.80;99.90;;;;;;6742553;88;20230;-79
2022/05/20 20:40:48;;;;;;;6.62;4.03;;;15.60;99.90;;;;;;6749601;88;20646;-79
2022/05/20 20:50:49;;;;;;;5.53;4.12;;;15.30;99.90;;;;;;6731261;88;20297;-79
2022/05/20 21:00:50;;;;;;;6.25;4.28;;;15.10;99.90;;;;;;6742180;88;20307;-79
2022/05/20 21:10:51;;;;;;;7.10;4.03;;;14.90;99.90;;;;;;6741017;88;20233;-80
2022/05/20 21:20:53;;;;;;;4.70;3.62;;;14.80;99.90;;;;;;6703135;88;20210;-79
2022/05/20 21:30:55;;;;;;;6.50;3.37;;;14.80;99.90;;;;;;6670670;89;20319;-78
2022/05/20 21:40:55;;;;;;;5.62;3.08;;;14.90;99.90;;;;;;6670101;88;20805;-80
2022/05/20 21:50:56;;;;;;;4.17;1.63;;;14.80;99.90;;;;;;6669554;89;20253;-78
2022/05/20 22:11:17;;;;;;;4.12;2.03;;;14.60;99.90;;;;;;6686545;89;20636;-79
2022/05/20 22:21:18;;;;;;;5.65;2.00;;;14.50;99.90;;;;;;6685821;89;20634;-79
2022/05/20 22:31:18;;;;;;;4.30;2.40;;;14.40;99.90;;;;;;6686695;89;20191;-79
2022/05/20 22:41:19;;;;;;;7.43;2.80;;;14.20;99.90;;;;;;6685761;88;20268;-79
2022/05/20 22:51:19;;;;;;;5.85;3.05;;;14.00;99.90;;;;;;6681292;88;20195;-78
2022/05/20 23:01:26;;;;;;;6.43;3.50;;;13.80;99.90;;;;;;6650195;89;20242;-79
2022/05/20 23:11:27;;;;;;;7.12;4.05;;;13.70;99.90;;;;;;6652789;89;20187;-79
2022/05/20 23:21:27;;;;;;;6.68;4.45;;;13.60;99.90;;;;;;6698973;88;20211;-80
2022/05/20 23:31:28;;;;;;;8.88;4.72;;;13.50;99.90;;;;;;6723529;88;20192;-79
2022/05/20 23:41:32;;;;;;;8.32;5.05;;;13.30;99.90;;;;;;6671324;89;20240;-79
2022/05/20 23:51:33;;;;;;;6.78;4.47;;;13.20;99.90;;;;;;6664626;89;20754;-79
